sensor_id;sensor_type;location;lat;lon;timestamp;P1;durP1;ratioP1;P2;durP2;ratioP2
30539;SDS011;17321;46.312;4.776;2023-01-19T00:00:37;22.77;;;12.48;;
30539;SDS011;17321;46.312;4.776;2023-01-19T00:03:04;19.92;;;13.35;;
30539;SDS011;17321;46.312;4.776;2023-01-19T00:05:30;47.60;;;23.27;;
30539;SDS011;17321;46.312;4.776;2023-01-19T00:07:57;39.10;;;19.70;;
30539;SDS011;17321;46.312;4.776;2023-01-19T00:10:38;56.25;;;26.52;;
30539;SDS011;17321;46.312;4.776;2023-01-19T00:13:05;28.08;;;12.93;;
30539;SDS011;17321;46.312;4.776;2023-01-19T00:15:31;24.27;;;10.32;;
30539;SDS011;17321;46.312;4.776;2023-01-19T00:17:57;15.70;;;9.80;;
30539;SDS011;17321;46.312;4.776;2023-01-19T00:20:23;14.73;;;9.13;;
30539;SDS011;17321;46.312;4.776;2023-01-19T00:22:49;11.40;;;8.02;;
30539;SDS011;17321;46.312;4.776;2023-01-19T00:25:16;15.10;;;9.48;;
30539;SDS011;17321;46.312;4.776;2023-01-19T00:27:42;21.13;;;10.30;;
30539;SDS011;17321;46.312;4.776;2023-01-19T00:30:16;22.67;;;12.07;;
30539;SDS011;17321;46.312;4.776;2023-01-19T00:32:42;28.85;;;14.15;;
30539;SDS011;17321;46.312;4.776;2023-01-19T00:35:08;16.45;;;8.55;;
30539;SDS011;17321;46.312;4.776;2023-01-19T00:37:34;23.90;;;10.77;;
30539;SDS011;17321;46.312;4.776;2023-01-19T00:40:01;15.25;;;8.88;;
30539;SDS011;17321;46.312;4.776;2023-01-19T00:42:27;18.52;;;10.10;;
30539;SDS011;17321;46.312;4.776;2023-01-19T00:45:23;8.50;;;5.20;;
30539;SDS011;17321;46.312;4.776;2023-01-19T00:47:50;6.88;;;4.63;;
30539;SDS011;17321;46.312;4.776;2023-01-19T00:50:21;7.68;;;5.38;;
30539;SDS011;17321;46.312;4.776;2023-01-19T00:52:47;8.98;;;5.03;;
30539;SDS011;17321;46.312;4.776;2023-01-19T00:55:13;14.68;;;6.18;;
30539;SDS011;17321;46.312;4.776;2023-01-19T00:57:40;10.93;;;7.28;;
30539;SDS011;17321;46.312;4.776;2023-01-19T01:00:07;15.25;;;7.20;;
30539;SDS011;17321;46.312;4.776;2023-01-19T01:02:35;14.05;;;8.80;;
30539;SDS011;17321;46.312;4.776;2023-01-19T01:05:02;18.15;;;9.15;;
30539;SDS011;17321;46.312;4.776;2023-01-19T01:07:30;18.80;;;8.83;;
30539;SDS011;17321;46.312;4.776;2023-01-19T01:09:59;19.52;;;11.30;;
30539;SDS011;17321;46.312;4.776;2023-01-19T01:12:25;20.85;;;10.95;;
30539;SDS011;17321;46.312;4.776;2023-01-19T01:14:52;17.23;;;10.55;;
30539;SDS011;17321;46.312;4.776;2023-01-19T01:17:19;18.80;;;12.07;;
30539;SDS011;17321;46.312;4.776;2023-01-19T01:19:49;13.73;;;9.95;;
30539;SDS011;17321;46.312;4.776;2023-01-19T01:22:15;18.85;;;10.02;;
30539;SDS011;17321;46.312;4.776;2023-01-19T01:24:41;19.30;;;10.40;;
30539;SDS011;17321;46.312;4.776;2023-01-19T01:27:07;18.27;;;10.32;;
30539;SDS011;17321;46.312;4.776;2023-01-19T01:29:34;20.95;;;11.85;;
30539;SDS011;17321;46.312;4.776;2023-01-19T01:32:00;15.20;;;10.10;;
30539;SDS011;17321;46.312;4.776;2023-01-19T01:34:26;14.63;;;9.90;;
30539;SDS011;17321;46.312;4.776;2023-01-19T01:36:52;18.88;;;11.63;;
30539;SDS011;17321;46.312;4.776;2023-01-19T01:39:19;22.40;;;11.20;;
30539;SDS011;17321;46.312;4.776;2023-01-19T01:41:46;20.70;;;11.13;;
30539;SDS011;17321;46.312;4.776;2023-01-19T01:46:57;21.85;;;13.27;;
30539;SDS011;17321;46.312;4.776;2023-01-19T01:49:24;27.80;;;13.43;;
30539;SDS011;17321;46.312;4.776;2023-01-19T01:51:50;17.63;;;11.93;;
30539;SDS011;17321;46.312;4.776;2023-01-19T01:54:22;20.40;;;13.25;;
30539;SDS011;17321;46.312;4.776;2023-01-19T01:56:51;24.63;;;13.63;;
30539;SDS011;17321;46.312;4.776;2023-01-19T01:59:20;20.63;;;12.75;;
30539;SDS011;17321;46.312;4.776;2023-01-19T02:01:58;18.13;;;11.85;;
30539;SDS011;17321;46.312;4.776;2023-01-19T02:04:45;15.65;;;11.10;;
30539;SDS011;17321;46.312;4.776;2023-01-19T02:07:13;16.15;;;10.57;;
30539;SDS011;17321;46.312;4.776;2023-01-19T02:09:58;20.48;;;12.63;;
30539;SDS011;17321;46.312;4.776;2023-01-19T02:12:43;20.70;;;12.15;;
30539;SDS011;17321;46.312;4.776;2023-01-19T02:15:28;16.70;;;11.40;;
30539;SDS011;17321;46.312;4.776;2023-01-19T02:17:54;14.25;;;9.65;;
30539;SDS011;17321;46.312;4.776;2023-01-19T02:20:22;17.03;;;9.90;;
30539;SDS011;17321;46.312;4.776;2023-01-19T02:22:49;18.25;;;10.05;;
30539;SDS011;17321;46.312;4.776;2023-01-19T02:25:17;13.52;;;8.50;;
30539;SDS011;17321;46.312;4.776;2023-01-19T02:27:43;16.83;;;9.93;;
30539;SDS011;17321;46.312;4.776;2023-01-19T02:30:10;14.07;;;8.63;;
30539;SDS011;17321;46.312;4.776;2023-01-19T02:32:36;13.15;;;9.57;;
30539;SDS011;17321;46.312;4.776;2023-01-19T02:35:02;14.30;;;8.95;;
30539;SDS011;17321;46.312;4.776;2023-01-19T02:37:28;13.90;;;8.40;;
30539;SDS011;17321;46.312;4.776;2023-01-19T02:45:02;13.13;;;7.90;;
30539;SDS011;17321;46.312;4.776;2023-01-19T02:47:38;11.20;;;7.22;;
30539;SDS011;17321;46.312;4.776;2023-01-19T02:50:04;9.88;;;7.03;;
30539;SDS011;17321;46.312;4.776;2023-01-19T02:52:30;11.38;;;7.60;;
30539;SDS011;17321;46.312;4.776;2023-01-19T03:00:04;12.77;;;8.05;;
30539;SDS011;17321;46.312;4.776;2023-01-19T03:02:43;17.73;;;9.55;;
30539;SDS011;17321;46.312;4.776;2023-01-19T03:08:06;16.50;;;11.13;;
30539;SDS011;17321;46.312;4.776;2023-01-19T03:15:57;14.43;;;9.75;;
30539;SDS011;17321;46.312;4.776;2023-01-19T03:18:26;28.05;;;12.50;;
30539;SDS011;17321;46.312;4.776;2023-01-19T03:20:54;18.25;;;12.57;;
30539;SDS011;17321;46.312;4.776;2023-01-19T03:23:21;16.63;;;11.77;;
30539;SDS011;17321;46.312;4.776;2023-01-19T03:25:49;24.80;;;13.48;;
30539;SDS011;17321;46.312;4.776;2023-01-19T03:28:16;24.75;;;13.32;;
30539;SDS011;17321;46.312;4.776;2023-01-19T03:30:47;19.75;;;10.75;;
30539;SDS011;17321;46.312;4.776;2023-01-19T03:33:16;22.52;;;11.63;;
30539;SDS011;17321;46.312;4.776;2023-01-19T03:35:48;18.35;;;9.55;;
30539;SDS011;17321;46.312;4.776;2023-01-19T03:38:16;14.48;;;8.48;;
30539;SDS011;17321;46.312;4.776;2023-01-19T03:40:43;16.13;;;10.57;;
30539;SDS011;17321;46.312;4.776;2023-01-19T03:43:11;16.30;;;10.05;;
30539;SDS011;17321;46.312;4.776;2023-01-19T03:45:38;15.40;;;9.55;;
30539;SDS011;17321;46.312;4.776;2023-01-19T03:48:04;15.68;;;10.07;;
30539;SDS011;17321;46.312;4.776;2023-01-19T03:50:31;18.05;;;11.45;;
30539;SDS011;17321;46.312;4.776;2023-01-19T03:53:00;21.50;;;12.02;;
30539;SDS011;17321;46.312;4.776;2023-01-19T03:55:27;15.77;;;10.43;;
30539;SDS011;17321;46.312;4.776;2023-01-19T03:57:53;18.88;;;12.45;;
30539;SDS011;17321;46.312;4.776;2023-01-19T04:00:20;24.05;;;12.43;;
30539;SDS011;17321;46.312;4.776;2023-01-19T04:02:46;19.73;;;10.98;;
30539;SDS011;17321;46.312;4.776;2023-01-19T04:05:12;14.55;;;9.60;;
30539;SDS011;17321;46.312;4.776;2023-01-19T04:07:38;21.00;;;12.10;;
30539;SDS011;17321;46.312;4.776;2023-01-19T04:10:04;17.70;;;10.93;;
30539;SDS011;17321;46.312;4.776;2023-01-19T04:12:30;20.75;;;12.38;;
30539;SDS011;17321;46.312;4.776;2023-01-19T04:14:57;22.60;;;13.15;;
30539;SDS011;17321;46.312;4.776;2023-01-19T04:17:23;17.98;;;10.52;;
30539;SDS011;17321;46.312;4.776;2023-01-19T04:19:49;17.63;;;11.57;;
30539;SDS011;17321;46.312;4.776;2023-01-19T04:22:15;19.23;;;12.23;;
30539;SDS011;17321;46.312;4.776;2023-01-19T04:24:41;18.58;;;11.70;;
30539;SDS011;17321;46.312;4.776;2023-01-19T04:27:07;18.00;;;11.73;;
30539;SDS011;17321;46.312;4.776;2023-01-19T04:29:33;16.85;;;10.93;;
30539;SDS011;17321;46.312;4.776;2023-01-19T04:31:59;15.32;;;10.02;;
30539;SDS011;17321;46.312;4.776;2023-01-19T04:34:25;15.90;;;9.93;;
30539;SDS011;17321;46.312;4.776;2023-01-19T04:36:51;14.13;;;7.55;;
30539;SDS011;17321;46.312;4.776;2023-01-19T04:39:19;9.50;;;5.82;;
30539;SDS011;17321;46.312;4.776;2023-01-19T04:41:47;10.00;;;5.18;;
30539;SDS011;17321;46.312;4.776;2023-01-19T04:44:13;11.18;;;6.45;;
30539;SDS011;17321;46.312;4.776;2023-01-19T04:46:39;6.75;;;4.63;;
30539;SDS011;17321;46.312;4.776;2023-01-19T04:49:05;5.28;;;3.35;;
30539;SDS011;17321;46.312;4.776;2023-01-19T04:51:31;15.32;;;6.07;;
30539;SDS011;17321;46.312;4.776;2023-01-19T04:53:58;15.32;;;10.27;;
30539;SDS011;17321;46.312;4.776;2023-01-19T04:56:24;14.43;;;10.40;;
30539;SDS011;17321;46.312;4.776;2023-01-19T04:58:50;23.42;;;13.10;;
30539;SDS011;17321;46.312;4.776;2023-01-19T05:01:16;27.60;;;13.55;;
30539;SDS011;17321;46.312;4.776;2023-01-19T05:03:42;16.73;;;10.80;;
30539;SDS011;17321;46.312;4.776;2023-01-19T05:06:09;19.27;;;11.32;;
30539;SDS011;17321;46.312;4.776;2023-01-19T05:08:35;31.88;;;15.68;;
30539;SDS011;17321;46.312;4.776;2023-01-19T05:11:01;19.95;;;13.50;;
30539;SDS011;17321;46.312;4.776;2023-01-19T05:13:27;21.83;;;12.88;;
30539;SDS011;17321;46.312;4.776;2023-01-19T05:15:53;30.48;;;17.25;;
30539;SDS011;17321;46.312;4.776;2023-01-19T05:18:19;43.80;;;22.60;;
30539;SDS011;17321;46.312;4.776;2023-01-19T05:20:46;25.77;;;15.32;;
30539;SDS011;17321;46.312;4.776;2023-01-19T05:23:12;29.83;;;16.50;;
30539;SDS011;17321;46.312;4.776;2023-01-19T05:25:38;27.42;;;16.92;;
30539;SDS011;17321;46.312;4.776;2023-01-19T05:28:04;29.98;;;17.38;;
30539;SDS011;17321;46.312;4.776;2023-01-19T05:30:30;25.80;;;17.63;;
30539;SDS011;17321;46.312;4.776;2023-01-19T05:32:56;30.23;;;16.75;;
30539;SDS011;17321;46.312;4.776;2023-01-19T05:35:22;27.52;;;17.13;;
30539;SDS011;17321;46.312;4.776;2023-01-19T05:37:48;27.08;;;16.88;;
30539;SDS011;17321;46.312;4.776;2023-01-19T05:40:14;30.38;;;17.05;;
30539;SDS011;17321;46.312;4.776;2023-01-19T05:42:41;26.88;;;16.63;;
30539;SDS011;17321;46.312;4.776;2023-01-19T05:45:07;29.80;;;17.35;;
30539;SDS011;17321;46.312;4.776;2023-01-19T05:47:33;33.65;;;15.80;;
30539;SDS011;17321;46.312;4.776;2023-01-19T05:49:59;27.42;;;18.45;;
30539;SDS011;17321;46.312;4.776;2023-01-19T05:52:25;30.67;;;16.73;;
30539;SDS011;17321;46.312;4.776;2023-01-19T05:54:51;32.10;;;19.38;;
30539;SDS011;17321;46.312;4.776;2023-01-19T05:57:19;35.33;;;19.38;;
30539;SDS011;17321;46.312;4.776;2023-01-19T05:59:45;37.97;;;21.55;;
30539;SDS011;17321;46.312;4.776;2023-01-19T06:02:11;33.90;;;21.17;;
30539;SDS011;17321;46.312;4.776;2023-01-19T06:04:37;30.90;;;20.00;;
30539;SDS011;17321;46.312;4.776;2023-01-19T06:07:04;30.88;;;20.48;;
30539;SDS011;17321;46.312;4.776;2023-01-19T06:09:31;30.77;;;20.05;;
30539;SDS011;17321;46.312;4.776;2023-01-19T06:11:57;39.85;;;23.55;;
30539;SDS011;17321;46.312;4.776;2023-01-19T06:14:24;29.02;;;18.88;;
30539;SDS011;17321;46.312;4.776;2023-01-19T06:16:50;36.55;;;20.92;;
30539;SDS011;17321;46.312;4.776;2023-01-19T06:19:16;29.17;;;19.65;;
30539;SDS011;17321;46.312;4.776;2023-01-19T06:21:42;27.48;;;18.02;;
30539;SDS011;17321;46.312;4.776;2023-01-19T06:24:14;30.35;;;18.10;;
30539;SDS011;17321;46.312;4.776;2023-01-19T06:26:40;45.80;;;20.85;;
30539;SDS011;17321;46.312;4.776;2023-01-19T06:29:08;37.08;;;22.98;;
30539;SDS011;17321;46.312;4.776;2023-01-19T06:31:35;49.22;;;24.17;;
30539;SDS011;17321;46.312;4.776;2023-01-19T06:34:01;46.63;;;23.30;;
30539;SDS011;17321;46.312;4.776;2023-01-19T06:36:27;35.10;;;22.33;;
30539;SDS011;17321;46.312;4.776;2023-01-19T06:38:54;37.53;;;22.05;;
30539;SDS011;17321;46.312;4.776;2023-01-19T06:41:20;35.92;;;19.75;;
30539;SDS011;17321;46.312;4.776;2023-01-19T06:43:46;36.85;;;20.30;;
30539;SDS011;17321;46.312;4.776;2023-01-19T06:46:12;37.28;;;22.35;;
30539;SDS011;17321;46.312;4.776;2023-01-19T06:48:38;37.80;;;20.95;;
30539;SDS011;17321;46.312;4.776;2023-01-19T06:51:04;37.40;;;21.02;;
30539;SDS011;17321;46.312;4.776;2023-01-19T06:53:31;33.17;;;19.92;;
30539;SDS011;17321;46.312;4.776;2023-01-19T06:55:58;35.00;;;18.92;;
30539;SDS011;17321;46.312;4.776;2023-01-19T06:58:25;34.03;;;19.15;;
30539;SDS011;17321;46.312;4.776;2023-01-19T07:00:51;31.88;;;18.45;;
30539;SDS011;17321;46.312;4.776;2023-01-19T07:03:19;29.02;;;18.63;;
30539;SDS011;17321;46.312;4.776;2023-01-19T07:05:45;28.13;;;18.35;;
30539;SDS011;17321;46.312;4.776;2023-01-19T07:08:13;34.63;;;19.57;;
30539;SDS011;17321;46.312;4.776;2023-01-19T07:10:40;36.05;;;20.95;;
30539;SDS011;17321;46.312;4.776;2023-01-19T07:13:06;36.80;;;20.48;;
30539;SDS011;17321;46.312;4.776;2023-01-19T07:15:32;34.88;;;20.20;;
30539;SDS011;17321;46.312;4.776;2023-01-19T07:17:58;34.00;;;21.50;;
30539;SDS011;17321;46.312;4.776;2023-01-19T07:22:56;27.02;;;17.88;;
30539;SDS011;17321;46.312;4.776;2023-01-19T07:25:22;32.65;;;20.17;;
30539;SDS011;17321;46.312;4.776;2023-01-19T07:27:49;40.35;;;21.35;;
30539;SDS011;17321;46.312;4.776;2023-01-19T07:30:15;46.33;;;20.40;;
30539;SDS011;17321;46.312;4.776;2023-01-19T07:32:41;34.38;;;18.98;;
30539;SDS011;17321;46.312;4.776;2023-01-19T07:35:08;37.63;;;20.52;;
30539;SDS011;17321;46.312;4.776;2023-01-19T07:37:34;40.83;;;21.88;;
30539;SDS011;17321;46.312;4.776;2023-01-19T07:40:00;36.67;;;22.15;;
30539;SDS011;17321;46.312;4.776;2023-01-19T07:42:26;38.00;;;20.95;;
30539;SDS011;17321;46.312;4.776;2023-01-19T07:44:52;34.90;;;21.30;;
30539;SDS011;17321;46.312;4.776;2023-01-19T07:47:18;31.73;;;20.08;;
30539;SDS011;17321;46.312;4.776;2023-01-19T07:49:44;33.58;;;19.05;;
30539;SDS011;17321;46.312;4.776;2023-01-19T07:52:11;36.83;;;20.77;;
30539;SDS011;17321;46.312;4.776;2023-01-19T07:54:37;35.35;;;20.40;;
30539;SDS011;17321;46.312;4.776;2023-01-19T07:57:03;37.17;;;21.13;;
30539;SDS011;17321;46.312;4.776;2023-01-19T07:59:29;37.25;;;20.65;;
30539;SDS011;17321;46.312;4.776;2023-01-19T08:01:56;38.42;;;22.10;;
30539;SDS011;17321;46.312;4.776;2023-01-19T08:04:24;36.08;;;22.52;;
30539;SDS011;17321;46.312;4.776;2023-01-19T08:06:50;30.15;;;20.45;;
30539;SDS011;17321;46.312;4.776;2023-01-19T08:09:16;32.90;;;20.25;;
30539;SDS011;17321;46.312;4.776;2023-01-19T08:11:42;35.17;;;19.65;;
30539;SDS011;17321;46.312;4.776;2023-01-19T08:14:08;37.63;;;22.42;;
30539;SDS011;17321;46.312;4.776;2023-01-19T08:16:35;35.95;;;23.23;;
30539;SDS011;17321;46.312;4.776;2023-01-19T08:19:02;45.90;;;25.33;;
30539;SDS011;17321;46.312;4.776;2023-01-19T08:21:28;35.22;;;22.95;;
30539;SDS011;17321;46.312;4.776;2023-01-19T08:23:55;37.38;;;22.38;;
30539;SDS011;17321;46.312;4.776;2023-01-19T08:26:25;46.53;;;24.95;;
30539;SDS011;17321;46.312;4.776;2023-01-19T08:28:56;42.63;;;24.05;;
30539;SDS011;17321;46.312;4.776;2023-01-19T08:31:22;46.08;;;25.92;;
30539;SDS011;17321;46.312;4.776;2023-01-19T08:33:49;46.42;;;26.75;;
30539;SDS011;17321;46.312;4.776;2023-01-19T08:36:15;54.67;;;27.80;;
30539;SDS011;17321;46.312;4.776;2023-01-19T08:38:43;49.78;;;25.92;;
30539;SDS011;17321;46.312;4.776;2023-01-19T08:41:09;45.45;;;27.95;;
30539;SDS011;17321;46.312;4.776;2023-01-19T08:43:36;49.28;;;28.60;;
30539;SDS011;17321;46.312;4.776;2023-01-19T08:46:02;44.38;;;27.17;;
30539;SDS011;17321;46.312;4.776;2023-01-19T08:48:29;44.83;;;26.15;;
30539;SDS011;17321;46.312;4.776;2023-01-19T08:50:55;43.25;;;26.40;;
30539;SDS011;17321;46.312;4.776;2023-01-19T08:53:21;39.88;;;26.17;;
30539;SDS011;17321;46.312;4.776;2023-01-19T08:55:48;45.15;;;26.73;;
30539;SDS011;17321;46.312;4.776;2023-01-19T08:58:14;44.67;;;26.67;;
30539;SDS011;17321;46.312;4.776;2023-01-19T09:00:41;48.13;;;26.73;;
30539;SDS011;17321;46.312;4.776;2023-01-19T09:03:08;42.97;;;25.95;;
30539;SDS011;17321;46.312;4.776;2023-01-19T09:05:36;45.65;;;27.95;;
30539;SDS011;17321;46.312;4.776;2023-01-19T09:08:07;44.97;;;27.23;;
30539;SDS011;17321;46.312;4.776;2023-01-19T09:10:34;43.72;;;25.73;;
30539;SDS011;17321;46.312;4.776;2023-01-19T09:13:05;45.80;;;29.20;;
30539;SDS011;17321;46.312;4.776;2023-01-19T09:15:32;41.33;;;26.58;;
30539;SDS011;17321;46.312;4.776;2023-01-19T09:20:27;42.38;;;24.15;;
30539;SDS011;17321;46.312;4.776;2023-01-19T09:22:55;33.85;;;24.13;;
30539;SDS011;17321;46.312;4.776;2023-01-19T09:25:22;39.97;;;25.55;;
30539;SDS011;17321;46.312;4.776;2023-01-19T09:27:48;37.05;;;22.65;;
30539;SDS011;17321;46.312;4.776;2023-01-19T09:30:15;36.15;;;21.73;;
30539;SDS011;17321;46.312;4.776;2023-01-19T09:32:41;39.28;;;20.10;;
30539;SDS011;17321;46.312;4.776;2023-01-19T09:35:09;34.72;;;19.83;;
30539;SDS011;17321;46.312;4.776;2023-01-19T09:37:35;32.08;;;20.52;;
30539;SDS011;17321;46.312;4.776;2023-01-19T09:40:02;32.78;;;21.30;;
30539;SDS011;17321;46.312;4.776;2023-01-19T09:42:40;35.33;;;22.05;;
30539;SDS011;17321;46.312;4.776;2023-01-19T09:45:13;32.80;;;20.80;;
30539;SDS011;17321;46.312;4.776;2023-01-19T09:47:40;30.95;;;19.88;;
30539;SDS011;17321;46.312;4.776;2023-01-19T09:50:15;52.42;;;30.20;;
30539;SDS011;17321;46.312;4.776;2023-01-19T09:52:42;35.63;;;23.63;;
30539;SDS011;17321;46.312;4.776;2023-01-19T09:55:19;42.17;;;24.17;;
30539;SDS011;17321;46.312;4.776;2023-01-19T09:57:45;47.10;;;26.70;;
30539;SDS011;17321;46.312;4.776;2023-01-19T10:00:15;42.33;;;27.70;;
30539;SDS011;17321;46.312;4.776;2023-01-19T10:02:43;42.55;;;27.13;;
30539;SDS011;17321;46.312;4.776;2023-01-19T10:05:24;43.65;;;26.17;;
30539;SDS011;17321;46.312;4.776;2023-01-19T10:10:33;36.42;;;21.10;;
30539;SDS011;17321;46.312;4.776;2023-01-19T10:15:45;28.58;;;18.70;;
30539;SDS011;17321;46.312;4.776;2023-01-19T10:18:19;22.75;;;16.67;;
30539;SDS011;17321;46.312;4.776;2023-01-19T10:20:53;25.30;;;16.42;;
30539;SDS011;17321;46.312;4.776;2023-01-19T10:25:54;22.58;;;13.05;;
30539;SDS011;17321;46.312;4.776;2023-01-19T10:28:22;24.35;;;15.05;;
30539;SDS011;17321;46.312;4.776;2023-01-19T10:30:50;33.50;;;18.88;;
30539;SDS011;17321;46.312;4.776;2023-01-19T10:33:18;28.05;;;19.83;;
30539;SDS011;17321;46.312;4.776;2023-01-19T10:35:44;27.48;;;20.00;;
30539;SDS011;17321;46.312;4.776;2023-01-19T10:38:13;31.25;;;18.90;;
30539;SDS011;17321;46.312;4.776;2023-01-19T10:40:48;25.08;;;16.95;;
30539;SDS011;17321;46.312;4.776;2023-01-19T10:43:34;25.27;;;17.67;;
30539;SDS011;17321;46.312;4.776;2023-01-19T10:48:46;24.23;;;17.00;;
30539;SDS011;17321;46.312;4.776;2023-01-19T10:51:13;23.30;;;15.45;;
30539;SDS011;17321;46.312;4.776;2023-01-19T10:53:39;25.95;;;17.55;;
30539;SDS011;17321;46.312;4.776;2023-01-19T10:56:20;29.38;;;18.63;;
30539;SDS011;17321;46.312;4.776;2023-01-19T10:58:47;25.88;;;18.58;;
30539;SDS011;17321;46.312;4.776;2023-01-19T11:01:23;28.98;;;17.77;;
30539;SDS011;17321;46.312;4.776;2023-01-19T11:03:50;26.65;;;16.02;;
30539;SDS011;17321;46.312;4.776;2023-01-19T11:06:18;26.98;;;16.67;;
30539;SDS011;17321;46.312;4.776;2023-01-19T11:08:46;22.63;;;15.20;;
30539;SDS011;17321;46.312;4.776;2023-01-19T11:11:12;23.08;;;15.00;;
30539;SDS011;17321;46.312;4.776;2023-01-19T11:13:39;28.67;;;16.08;;
30539;SDS011;17321;46.312;4.776;2023-01-19T11:16:18;20.77;;;15.13;;
30539;SDS011;17321;46.312;4.776;2023-01-19T11:18:45;29.75;;;18.70;;
30539;SDS011;17321;46.312;4.776;2023-01-19T11:21:16;30.88;;;18.00;;
30539;SDS011;17321;46.312;4.776;2023-01-19T11:26:14;29.48;;;17.75;;
30539;SDS011;17321;46.312;4.776;2023-01-19T11:28:42;26.38;;;16.00;;
30539;SDS011;17321;46.312;4.776;2023-01-19T11:33:40;25.67;;;15.68;;
30539;SDS011;17321;46.312;4.776;2023-01-19T11:38:46;30.17;;;17.58;;
30539;SDS011;17321;46.312;4.776;2023-01-19T11:41:15;32.20;;;19.02;;
30539;SDS011;17321;46.312;4.776;2023-01-19T11:43:43;31.70;;;19.13;;
30539;SDS011;17321;46.312;4.776;2023-01-19T11:46:12;28.20;;;17.40;;
30539;SDS011;17321;46.312;4.776;2023-01-19T11:48:41;29.65;;;14.90;;
30539;SDS011;17321;46.312;4.776;2023-01-19T11:53:34;21.10;;;14.02;;
30539;SDS011;17321;46.312;4.776;2023-01-19T11:56:19;20.88;;;12.88;;
30539;SDS011;17321;46.312;4.776;2023-01-19T11:58:47;29.48;;;15.52;;
30539;SDS011;17321;46.312;4.776;2023-01-19T12:01:21;22.77;;;15.10;;
30539;SDS011;17321;46.312;4.776;2023-01-19T12:06:19;20.95;;;14.57;;
30539;SDS011;17321;46.312;4.776;2023-01-19T12:08:48;23.87;;;14.50;;
30539;SDS011;17321;46.312;4.776;2023-01-19T12:11:17;19.13;;;13.55;;
30539;SDS011;17321;46.312;4.776;2023-01-19T12:13:44;20.35;;;13.32;;
30539;SDS011;17321;46.312;4.776;2023-01-19T12:18:44;26.48;;;15.35;;
30539;SDS011;17321;46.312;4.776;2023-01-19T12:21:11;23.25;;;14.70;;
30539;SDS011;17321;46.312;4.776;2023-01-19T12:28:56;22.92;;;15.02;;
30539;SDS011;17321;46.312;4.776;2023-01-19T12:31:25;23.05;;;14.43;;
30539;SDS011;17321;46.312;4.776;2023-01-19T12:33:51;20.75;;;14.10;;
30539;SDS011;17321;46.312;4.776;2023-01-19T12:41:34;17.83;;;13.65;;
30539;SDS011;17321;46.312;4.776;2023-01-19T12:46:53;15.48;;;11.93;;
30539;SDS011;17321;46.312;4.776;2023-01-19T12:54:35;19.20;;;11.65;;
30539;SDS011;17321;46.312;4.776;2023-01-19T12:57:20;17.02;;;10.50;;
30539;SDS011;17321;46.312;4.776;2023-01-19T12:59:50;11.32;;;8.75;;
30539;SDS011;17321;46.312;4.776;2023-01-19T13:05:20;15.80;;;9.75;;
30539;SDS011;17321;46.312;4.776;2023-01-19T13:13:14;9.18;;;6.95;;
30539;SDS011;17321;46.312;4.776;2023-01-19T13:15:41;12.27;;;5.32;;
30539;SDS011;17321;46.312;4.776;2023-01-19T13:18:08;5.70;;;4.82;;
30539;SDS011;17321;46.312;4.776;2023-01-19T13:20:42;13.15;;;7.45;;
30539;SDS011;17321;46.312;4.776;2023-01-19T13:23:16;17.80;;;8.10;;
30539;SDS011;17321;46.312;4.776;2023-01-19T13:25:45;8.48;;;5.80;;
30539;SDS011;17321;46.312;4.776;2023-01-19T13:28:12;12.77;;;7.18;;
30539;SDS011;17321;46.312;4.776;2023-01-19T13:30:43;9.35;;;5.85;;
30539;SDS011;17321;46.312;4.776;2023-01-19T13:33:17;7.35;;;5.55;;
30539;SDS011;17321;46.312;4.776;2023-01-19T13:35:50;17.13;;;7.95;;
30539;SDS011;17321;46.312;4.776;2023-01-19T13:38:17;6.32;;;4.40;;
30539;SDS011;17321;46.312;4.776;2023-01-19T13:40:44;8.48;;;4.75;;
30539;SDS011;17321;46.312;4.776;2023-01-19T13:43:15;8.75;;;5.05;;
30539;SDS011;17321;46.312;4.776;2023-01-19T13:45:44;7.97;;;4.63;;
30539;SDS011;17321;46.312;4.776;2023-01-19T13:48:13;6.07;;;3.95;;
30539;SDS011;17321;46.312;4.776;2023-01-19T13:50:41;8.48;;;4.47;;
30539;SDS011;17321;46.312;4.776;2023-01-19T13:53:16;6.17;;;3.80;;
30539;SDS011;17321;46.312;4.776;2023-01-19T13:55:43;8.07;;;4.32;;
30539;SDS011;17321;46.312;4.776;2023-01-19T13:58:18;7.15;;;4.22;;
30539;SDS011;17321;46.312;4.776;2023-01-19T14:00:45;7.47;;;3.17;;
30539;SDS011;17321;46.312;4.776;2023-01-19T14:05:42;4.47;;;2.67;;
30539;SDS011;17321;46.312;4.776;2023-01-19T14:10:44;4.25;;;2.33;;
30539;SDS011;17321;46.312;4.776;2023-01-19T14:13:15;3.70;;;2.35;;
30539;SDS011;17321;46.312;4.776;2023-01-19T14:15:42;3.15;;;2.28;;
30539;SDS011;17321;46.312;4.776;2023-01-19T14:18:10;2.90;;;2.20;;
30539;SDS011;17321;46.312;4.776;2023-01-19T14:20:37;7.25;;;3.95;;
30539;SDS011;17321;46.312;4.776;2023-01-19T14:23:03;6.05;;;3.70;;
30539;SDS011;17321;46.312;4.776;2023-01-19T14:25:30;3.10;;;2.60;;
30539;SDS011;17321;46.312;4.776;2023-01-19T14:33:39;5.05;;;2.80;;
30539;SDS011;17321;46.312;4.776;2023-01-19T14:38:50;3.45;;;2.60;;
30539;SDS011;17321;46.312;4.776;2023-01-19T14:41:26;4.90;;;2.65;;
30539;SDS011;17321;46.312;4.776;2023-01-19T14:43:55;4.35;;;3.17;;
30539;SDS011;17321;46.312;4.776;2023-01-19T14:46:21;10.40;;;7.38;;
30539;SDS011;17321;46.312;4.776;2023-01-19T14:48:48;4.13;;;2.97;;
30539;SDS011;17321;46.312;4.776;2023-01-19T14:51:16;5.30;;;2.97;;
30539;SDS011;17321;46.312;4.776;2023-01-19T14:53:45;5.57;;;3.15;;
30539;SDS011;17321;46.312;4.776;2023-01-19T14:58:38;5.38;;;3.20;;
30539;SDS011;17321;46.312;4.776;2023-01-19T15:01:04;5.13;;;2.80;;
30539;SDS011;17321;46.312;4.776;2023-01-19T15:03:30;4.50;;;2.40;;
30539;SDS011;17321;46.312;4.776;2023-01-19T15:05:57;6.25;;;3.22;;
30539;SDS011;17321;46.312;4.776;2023-01-19T15:08:31;5.65;;;3.03;;
30539;SDS011;17321;46.312;4.776;2023-01-19T15:11:00;3.60;;;2.78;;
30539;SDS011;17321;46.312;4.776;2023-01-19T15:13:28;3.85;;;2.85;;
30539;SDS011;17321;46.312;4.776;2023-01-19T15:15:54;4.10;;;2.83;;
30539;SDS011;17321;46.312;4.776;2023-01-19T15:18:22;5.53;;;3.40;;
30539;SDS011;17321;46.312;4.776;2023-01-19T15:20:50;4.35;;;2.90;;
30539;SDS011;17321;46.312;4.776;2023-01-19T15:23:16;5.90;;;3.30;;
30539;SDS011;17321;46.312;4.776;2023-01-19T15:25:42;5.47;;;3.38;;
30539;SDS011;17321;46.312;4.776;2023-01-19T15:28:18;4.72;;;3.30;;
30539;SDS011;17321;46.312;4.776;2023-01-19T15:30:44;6.40;;;3.85;;
30539;SDS011;17321;46.312;4.776;2023-01-19T15:33:16;6.20;;;4.10;;
30539;SDS011;17321;46.312;4.776;2023-01-19T15:35:44;6.97;;;4.38;;
30539;SDS011;17321;46.312;4.776;2023-01-19T15:38:10;5.97;;;3.80;;
30539;SDS011;17321;46.312;4.776;2023-01-19T15:40:36;6.85;;;4.45;;
30539;SDS011;17321;46.312;4.776;2023-01-19T15:43:02;6.65;;;3.75;;
30539;SDS011;17321;46.312;4.776;2023-01-19T15:47:58;5.10;;;3.60;;
30539;SDS011;17321;46.312;4.776;2023-01-19T15:50:25;5.93;;;3.97;;
30539;SDS011;17321;46.312;4.776;2023-01-19T15:52:51;5.82;;;3.38;;
30539;SDS011;17321;46.312;4.776;2023-01-19T15:55:18;5.78;;;3.47;;
30539;SDS011;17321;46.312;4.776;2023-01-19T15:57:44;4.95;;;3.03;;
30539;SDS011;17321;46.312;4.776;2023-01-19T16:00:11;6.63;;;3.80;;
30539;SDS011;17321;46.312;4.776;2023-01-19T16:02:38;7.03;;;3.30;;
30539;SDS011;17321;46.312;4.776;2023-01-19T16:05:04;5.68;;;3.33;;
30539;SDS011;17321;46.312;4.776;2023-01-19T16:07:33;5.25;;;3.08;;
30539;SDS011;17321;46.312;4.776;2023-01-19T16:12:27;6.18;;;3.33;;